WMKM/MKZ METAR and TAF weather

Enter ICAO airport designator
Station Type Date Time Source
WMKM METAR 2022/01/26 07:00 UTC NOAA

WMKM 260700Z 04009G24KT 330V090 9999 FEW021 32/22 Q1008


Station Type Date Time Source
WMKM Decoded METAR 2022/01/26 07:00 UTC NOAA

Malacca, Malaysia (WMKM) 02-16N 102-15E 9M
Jan 26, 2022 - 02:00 AM EST / 2022.01.26 0700 UTC
Wind: from the NE (040 degrees) at 10 MPH (9 KT) gusting to 28 MPH (24 KT) (direction variable):0
Visibility: greater than 7 mile(s):0
Sky conditions: mostly clear
Temperature: 89 F (32 C)
Heat index: 95.0 F (35.0 C):1
Dew Point: 71 F (22 C)
Relative Humidity: 55%
Pressure (altimeter): 29.77 in. Hg (1008 hPa)
ob: WMKM 260700Z 04009G24KT 330V090 9999 FEW021 32/22 Q1008
cycle: 7

Station Type Date Time Source
WMKM TAF 2022/01/26 06:00 UTC NOAA

TAF WMKM 260500Z 2606/2706 02006KT 9999 FEW020
TEMPO 2606/2610 29008G25KT

Example: see airport list